createdAt,value
2022-11-26T00:00:29.258Z,8.27
2022-11-26T00:02:57.310Z,8.25
2022-11-26T00:05:25.840Z,8.21
2022-11-26T00:07:57.102Z,8.22
2022-11-26T00:10:29.046Z,8.21
2022-11-26T00:12:57.931Z,8.18
2022-11-26T00:15:27.256Z,8.16
2022-11-26T00:17:55.575Z,8.13
2022-11-26T00:20:25.736Z,8.12
2022-11-26T00:22:55.452Z,8.09
2022-11-26T00:25:28.113Z,8.08
2022-11-26T00:27:59.056Z,8.08
2022-11-26T00:30:29.554Z,8.08
2022-11-26T00:32:57.463Z,8.05
2022-11-26T00:35:25.104Z,8.05
2022-11-26T00:37:56.220Z,8.05
2022-11-26T00:40:27.498Z,8.03
2022-11-26T00:43:01.625Z,8.04
2022-11-26T00:45:32.006Z,8.04
2022-11-26T00:48:01.552Z,8.05
2022-11-26T00:50:34.887Z,8.00
2022-11-26T00:53:02.555Z,8.03
2022-11-26T00:55:35.221Z,8.04
2022-11-26T00:58:03.122Z,8.03
2022-11-26T01:00:33.213Z,8.03
2022-11-26T01:03:01.765Z,8.02
2022-11-26T01:05:33.370Z,8.04
2022-11-26T01:08:08.081Z,8.05
2022-11-26T01:10:37.068Z,8.08
2022-11-26T01:13:04.748Z,8.10
2022-11-26T01:15:32.379Z,8.14
2022-11-26T01:18:00.052Z,8.13
2022-11-26T01:20:29.929Z,8.14
2022-11-26T01:22:59.460Z,8.15
2022-11-26T01:25:28.473Z,8.16
2022-11-26T01:27:57.418Z,8.18
2022-11-26T01:30:27.206Z,8.18
2022-11-26T01:32:54.902Z,8.15
2022-11-26T01:35:23.206Z,8.13
2022-11-26T01:37:50.961Z,8.14
2022-11-26T01:40:32.132Z,8.14
2022-11-26T01:43:07.372Z,8.12
2022-11-26T01:45:35.094Z,8.17
2022-11-26T01:48:03.005Z,8.20
2022-11-26T01:50:53.592Z,8.24
2022-11-26T01:53:38.821Z,8.34
2022-11-26T01:56:14.542Z,8.32
2022-11-26T01:58:47.338Z,8.31
2022-11-26T02:01:15.084Z,8.31
2022-11-26T02:03:50.836Z,8.30
2022-11-26T02:06:23.362Z,8.30
2022-11-26T02:08:50.977Z,8.27
2022-11-26T02:11:20.998Z,8.29
2022-11-26T02:13:53.772Z,8.31
2022-11-26T02:16:35.359Z,8.29
2022-11-26T02:19:22.506Z,8.28
2022-11-26T02:21:57.921Z,8.25
2022-11-26T02:24:39.897Z,8.28
2022-11-26T02:27:28.726Z,8.29
2022-11-26T02:30:12.114Z,8.28
2022-11-26T02:32:57.379Z,8.30
2022-11-26T02:35:33.631Z,8.28
2022-11-26T02:38:06.079Z,8.26
2022-11-26T02:40:34.026Z,8.24
2022-11-26T02:43:01.775Z,8.24
2022-11-26T02:45:35.026Z,8.27
2022-11-26T02:48:07.540Z,8.28
2022-11-26T02:54:41.657Z,8.21
2022-11-26T02:57:14.545Z,8.20
2022-11-26T02:59:43.189Z,8.19
2022-11-26T03:02:16.993Z,8.16
2022-11-26T03:04:48.543Z,8.13
2022-11-26T03:07:18.712Z,8.13
2022-11-26T03:09:52.070Z,8.11
2022-11-26T03:12:19.701Z,8.07
2022-11-26T03:14:47.464Z,8.08
2022-11-26T03:17:16.818Z,8.07
2022-11-26T03:19:44.574Z,8.09
2022-11-26T03:22:12.786Z,8.10
2022-11-26T03:24:40.968Z,8.10
2022-11-26T03:27:08.771Z,8.08
2022-11-26T03:29:36.348Z,8.06
2022-11-26T03:32:04.180Z,8.10
2022-11-26T03:34:33.257Z,8.07
2022-11-26T03:37:00.884Z,8.02
2022-11-26T03:39:28.531Z,7.99
2022-11-26T03:41:56.159Z,7.97
2022-11-26T03:44:23.757Z,7.98
2022-11-26T03:46:51.405Z,7.95
2022-11-26T03:49:19.010Z,7.95
2022-11-26T03:51:47.935Z,7.96
2022-11-26T03:54:15.640Z,7.92
2022-11-26T03:56:43.296Z,7.90
2022-11-26T03:59:10.874Z,7.88
2022-11-26T04:01:39.604Z,7.86
2022-11-26T04:04:07.210Z,7.82
2022-11-26T04:06:34.861Z,7.80
2022-11-26T04:09:04.043Z,7.80
2022-11-26T04:11:31.765Z,7.78
2022-11-26T04:13:59.404Z,7.75
2022-11-26T04:16:27.176Z,7.75
2022-11-26T04:18:55.772Z,7.72
2022-11-26T04:21:23.434Z,7.70
2022-11-26T04:23:51.043Z,7.65
2022-11-26T04:26:20.064Z,7.57
2022-11-26T04:28:47.689Z,7.48
2022-11-26T04:31:15.420Z,7.44
2022-11-26T04:33:43.160Z,7.36
2022-11-26T04:36:11.100Z,7.28
2022-11-26T04:38:39.005Z,7.21
2022-11-26T04:41:06.905Z,7.12
2022-11-26T04:43:35.885Z,7.04
2022-11-26T04:46:03.512Z,6.97
2022-11-26T04:48:31.193Z,6.88
2022-11-26T04:50:58.922Z,6.83
2022-11-26T04:53:26.612Z,6.79
2022-11-26T04:55:54.243Z,6.72
2022-11-26T04:58:22.106Z,6.67
2022-11-26T05:00:51.701Z,6.65
2022-11-26T05:03:19.935Z,6.60
2022-11-26T05:05:47.986Z,6.57
2022-11-26T05:08:15.756Z,6.54
2022-11-26T05:10:43.396Z,6.52
2022-11-26T05:13:11.128Z,6.51
2022-11-26T05:15:39.071Z,6.58
2022-11-26T05:18:08.052Z,6.57
2022-11-26T05:20:35.634Z,6.53
2022-11-26T05:23:03.276Z,6.51
2022-11-26T05:25:30.854Z,6.47
2022-11-26T05:27:58.402Z,6.45
2022-11-26T05:30:26.028Z,6.42
2022-11-26T05:32:53.715Z,6.39
2022-11-26T05:35:22.772Z,6.38
2022-11-26T05:37:50.440Z,6.41
2022-11-26T05:40:18.062Z,6.42
2022-11-26T05:42:45.693Z,6.46
2022-11-26T05:45:13.304Z,6.47
2022-11-26T05:47:40.950Z,6.49
2022-11-26T05:50:10.096Z,6.51
2022-11-26T05:52:39.070Z,6.50
2022-11-26T05:55:08.195Z,6.48
2022-11-26T05:57:35.780Z,6.44
2022-11-26T06:00:03.492Z,6.44
2022-11-26T06:02:39.795Z,6.41
2022-11-26T06:05:09.073Z,6.40
2022-11-26T06:07:40.511Z,6.40
2022-11-26T06:10:13.101Z,6.40
2022-11-26T06:12:40.701Z,6.40
2022-11-26T06:15:09.102Z,6.40
2022-11-26T06:17:36.816Z,6.36
2022-11-26T06:20:05.380Z,6.35
2022-11-26T06:22:37.400Z,6.40
2022-11-26T06:25:05.560Z,6.41
2022-11-26T06:27:35.524Z,6.40
2022-11-26T06:30:04.567Z,6.39
2022-11-26T06:32:33.081Z,6.42
2022-11-26T06:35:00.796Z,6.40
2022-11-26T06:37:28.457Z,6.39
2022-11-26T06:39:56.039Z,6.31
2022-11-26T06:42:23.623Z,6.31
2022-11-26T06:44:57.027Z,6.32
2022-11-26T06:47:27.440Z,6.34
2022-11-26T06:49:55.075Z,6.35
2022-11-26T06:52:22.659Z,6.37
2022-11-26T06:54:51.551Z,6.47
2022-11-26T06:57:19.144Z,6.56
2022-11-26T06:59:46.756Z,6.60
2022-11-26T07:02:15.750Z,6.65
2022-11-26T07:04:43.632Z,6.59
2022-11-26T07:07:11.329Z,6.54
2022-11-26T07:09:39.850Z,6.49
2022-11-26T07:12:07.661Z,6.47
2022-11-26T07:14:35.367Z,6.40
2022-11-26T07:17:02.989Z,6.42
2022-11-26T07:19:32.098Z,6.48
2022-11-26T07:21:59.756Z,6.55
2022-11-26T07:24:27.681Z,6.63
2022-11-26T07:26:56.116Z,6.64
2022-11-26T07:29:23.744Z,6.62
2022-11-26T07:31:51.434Z,6.65
2022-11-26T07:34:19.075Z,6.71
2022-11-26T07:36:48.080Z,6.75
2022-11-26T07:39:15.682Z,6.80
2022-11-26T07:41:43.264Z,6.77
2022-11-26T07:44:13.417Z,6.77
2022-11-26T07:46:41.554Z,6.75
2022-11-26T07:49:09.293Z,6.75
2022-11-26T07:51:39.239Z,6.75
2022-11-26T07:54:09.561Z,7.14
2022-11-26T07:56:37.579Z,7.73
2022-11-26T07:59:05.796Z,8.17
2022-11-26T08:01:34.025Z,8.35
2022-11-26T08:04:05.213Z,8.29
2022-11-26T08:06:33.091Z,8.08
2022-11-26T08:09:02.167Z,8.05
2022-11-26T08:11:32.762Z,8.04
2022-11-26T08:14:02.324Z,7.88
2022-11-26T08:16:30.396Z,7.78
2022-11-26T08:18:59.500Z,7.74
2022-11-26T08:21:27.660Z,7.66
2022-11-26T08:23:55.921Z,7.59
2022-11-26T08:26:32.959Z,7.55
2022-11-26T08:29:05.156Z,7.52
2022-11-26T08:36:05.985Z,7.64
2022-11-26T08:47:00.415Z,7.92
2022-11-26T08:49:28.266Z,8.00
2022-11-26T08:51:56.649Z,8.08
2022-11-26T08:54:25.031Z,8.14
2022-11-26T08:56:52.674Z,8.17
2022-11-26T08:59:22.840Z,8.22
2022-11-26T09:01:50.778Z,8.28
2022-11-26T09:04:19.784Z,8.32
2022-11-26T09:06:47.364Z,8.19
2022-11-26T09:09:15.446Z,8.16
2022-11-26T09:11:46.065Z,8.11
2022-11-26T09:14:14.542Z,8.08
2022-11-26T09:16:42.301Z,8.14
2022-11-26T09:19:11.718Z,8.04
2022-11-26T09:21:40.645Z,8.10
2022-11-26T09:24:08.865Z,8.10
2022-11-26T09:26:36.566Z,8.13
2022-11-26T09:29:05.145Z,8.20
2022-11-26T09:31:33.261Z,8.22
2022-11-26T09:34:01.978Z,8.35
2022-11-26T09:36:29.625Z,8.45
2022-11-26T09:38:59.679Z,8.36
2022-11-26T09:41:40.510Z,8.20
2022-11-26T09:44:25.280Z,8.17
2022-11-26T09:47:12.220Z,8.15
2022-11-26T09:49:45.533Z,8.14
2022-11-26T09:52:17.961Z,8.27
2022-11-26T09:54:49.167Z,8.38
2022-11-26T09:57:24.185Z,8.30
2022-11-26T09:59:54.196Z,8.32
2022-11-26T10:02:22.019Z,8.29
2022-11-26T10:04:49.810Z,8.30
2022-11-26T10:07:31.432Z,8.42
2022-11-26T10:10:09.171Z,8.50
2022-11-26T10:13:17.192Z,8.48
2022-11-26T10:15:50.369Z,8.66
2022-11-26T10:18:29.519Z,8.57
2022-11-26T10:21:08.871Z,8.65
2022-11-26T10:23:45.275Z,8.65
2022-11-26T10:26:28.367Z,8.50
2022-11-26T10:29:07.329Z,8.58
2022-11-26T10:31:35.399Z,8.78
2022-11-26T10:34:09.761Z,8.95
2022-11-26T10:36:39.666Z,9.35
2022-11-26T10:39:08.600Z,9.31
2022-11-26T10:41:38.737Z,9.49
2022-11-26T10:44:28.849Z,9.93
2022-11-26T10:46:56.580Z,10.13
2022-11-26T10:49:25.936Z,10.34
2022-11-26T10:51:57.280Z,10.45
2022-11-26T10:54:29.019Z,10.73
2022-11-26T10:57:04.904Z,10.96
2022-11-26T10:59:37.913Z,11.67
2022-11-26T11:02:30.397Z,12.35
2022-11-26T11:05:02.157Z,12.29
2022-11-26T11:07:35.108Z,12.42
2022-11-26T11:10:05.224Z,12.80
2022-11-26T11:12:34.247Z,12.75
2022-11-26T11:15:20.508Z,13.22
2022-11-26T11:17:54.565Z,12.93
2022-11-26T11:20:30.127Z,12.46
2022-11-26T11:23:01.080Z,12.34
2022-11-26T11:25:31.429Z,12.18
2022-11-26T11:28:11.957Z,12.45
2022-11-26T11:30:42.103Z,12.26
2022-11-26T11:33:28.829Z,12.56
2022-11-26T11:36:05.670Z,12.89
2022-11-26T11:38:35.494Z,12.80
2022-11-26T11:41:12.509Z,13.17
2022-11-26T11:43:41.651Z,12.69
2022-11-26T11:46:25.192Z,13.25
2022-11-26T11:49:01.175Z,14.25
2022-11-26T11:51:39.250Z,13.65
2022-11-26T11:54:16.530Z,13.94
2022-11-26T11:56:50.533Z,14.23
2022-11-26T11:59:47.834Z,14.14
2022-11-26T12:02:51.526Z,13.61
2022-11-26T12:05:43.699Z,13.73
2022-11-26T12:08:24.815Z,14.29
2022-11-26T12:11:05.270Z,14.88
2022-11-26T12:13:39.973Z,14.87
2022-11-26T12:16:13.102Z,15.35
2022-11-26T12:18:47.540Z,16.14
2022-11-26T12:21:17.384Z,16.51
2022-11-26T12:23:50.617Z,17.09
2022-11-26T12:26:23.087Z,17.37
2022-11-26T12:28:56.080Z,17.52
2022-11-26T12:31:30.625Z,17.59
2022-11-26T12:34:08.528Z,16.38
2022-11-26T12:36:45.441Z,16.43
2022-11-26T12:39:19.382Z,16.38
2022-11-26T12:41:56.499Z,16.18
2022-11-26T12:44:29.894Z,16.62
2022-11-26T12:47:05.526Z,16.84
2022-11-26T12:49:39.389Z,16.95
2022-11-26T12:52:25.714Z,16.65
2022-11-26T12:55:02.355Z,16.46
2022-11-26T12:57:35.073Z,16.57
2022-11-26T13:00:06.967Z,16.43
2022-11-26T13:02:39.059Z,16.51
2022-11-26T13:05:07.769Z,16.13
2022-11-26T13:07:50.031Z,15.36
2022-11-26T13:10:27.765Z,14.81
2022-11-26T13:13:03.905Z,15.18
2022-11-26T13:15:38.592Z,15.39
2022-11-26T13:18:14.441Z,15.95
2022-11-26T13:20:59.770Z,15.43
2022-11-26T13:23:42.106Z,15.19
2022-11-26T13:26:27.048Z,15.67
2022-11-26T13:29:23.716Z,16.21
2022-11-26T13:32:12.720Z,15.95
2022-11-26T13:34:59.841Z,16.20
2022-11-26T13:37:47.946Z,16.53
2022-11-26T13:40:48.262Z,16.98
2022-11-26T13:43:37.822Z,17.18
2022-11-26T13:46:17.599Z,17.29
2022-11-26T13:48:57.057Z,17.12
2022-11-26T13:51:32.687Z,16.76
2022-11-26T13:54:07.718Z,16.83
2022-11-26T13:56:37.401Z,16.79
2022-11-26T13:59:16.152Z,16.40
2022-11-26T14:01:44.009Z,16.31
2022-11-26T14:04:14.071Z,16.43
2022-11-26T14:07:20.196Z,16.13
2022-11-26T14:09:50.974Z,16.29
2022-11-26T14:12:19.773Z,16.27
2022-11-26T14:14:48.950Z,15.75
2022-11-26T14:17:19.787Z,15.62
2022-11-26T14:20:01.604Z,15.19
2022-11-26T14:22:33.547Z,14.73
2022-11-26T14:25:02.963Z,14.24
2022-11-26T14:27:33.378Z,14.14
2022-11-26T14:30:14.680Z,13.77
2022-11-26T14:32:49.086Z,13.43
2022-11-26T14:35:21.932Z,13.18
2022-11-26T14:37:56.620Z,13.11
2022-11-26T14:40:26.713Z,12.78
2022-11-26T14:43:15.716Z,12.74
2022-11-26T14:45:44.421Z,12.46
2022-11-26T14:48:27.734Z,12.31
2022-11-26T14:50:57.501Z,12.09
2022-11-26T14:53:29.107Z,11.85
2022-11-26T14:55:57.938Z,11.61
2022-11-26T14:58:32.823Z,11.55
2022-11-26T15:01:07.341Z,11.50
2022-11-26T15:03:35.335Z,11.33
2022-11-26T15:06:03.273Z,11.30
2022-11-26T15:08:32.198Z,11.24
2022-11-26T15:11:03.357Z,11.15
2022-11-26T15:13:37.440Z,11.07
2022-11-26T15:16:27.556Z,10.89
2022-11-26T15:18:56.549Z,10.72
2022-11-26T15:21:26.099Z,10.59
2022-11-26T15:23:59.114Z,10.44
2022-11-26T15:26:32.689Z,10.34
2022-11-26T15:29:00.168Z,10.16
2022-11-26T15:31:40.558Z,10.04
2022-11-26T15:34:12.632Z,9.88
2022-11-26T15:36:40.452Z,9.77
2022-11-26T15:39:25.334Z,9.64
2022-11-26T15:41:55.178Z,9.52
2022-11-26T15:44:26.854Z,9.47
2022-11-26T15:46:57.168Z,9.27
2022-11-26T15:49:28.203Z,9.11
2022-11-26T15:52:00.809Z,9.03
2022-11-26T15:54:49.625Z,8.81
2022-11-26T15:57:25.411Z,8.68
2022-11-26T15:59:58.382Z,8.69
2022-11-26T16:02:28.167Z,8.53
2022-11-26T16:04:57.916Z,8.39
2022-11-26T16:07:28.104Z,8.26
2022-11-26T16:10:21.358Z,8.17
2022-11-26T16:13:08.874Z,8.00
2022-11-26T16:15:37.466Z,7.81
2022-11-26T16:18:14.805Z,7.67
2022-11-26T16:20:43.162Z,7.54
2022-11-26T16:23:21.437Z,7.51
2022-11-26T16:26:08.993Z,7.41
2022-11-26T16:28:37.042Z,7.37
2022-11-26T16:31:04.800Z,7.32
2022-11-26T16:33:32.497Z,7.24
2022-11-26T16:36:01.639Z,7.21
2022-11-26T16:38:30.122Z,7.12
2022-11-26T16:40:57.711Z,6.97
2022-11-26T16:43:26.763Z,6.88
2022-11-26T16:45:56.158Z,6.83
2022-11-26T16:48:28.521Z,6.78
2022-11-26T16:50:57.131Z,6.70
2022-11-26T16:53:24.981Z,6.64
2022-11-26T16:55:54.827Z,6.56
2022-11-26T16:58:29.234Z,6.53
2022-11-26T17:00:57.738Z,6.44
2022-11-26T17:03:27.496Z,6.38
2022-11-26T17:05:57.506Z,6.41
2022-11-26T17:08:25.188Z,6.33
2022-11-26T17:10:54.810Z,6.27
2022-11-26T17:13:22.624Z,6.25
2022-11-26T17:15:52.400Z,6.27
2022-11-26T17:18:23.399Z,6.30
2022-11-26T17:20:52.720Z,6.31
2022-11-26T17:23:20.359Z,6.36
2022-11-26T17:25:52.179Z,6.40
2022-11-26T17:28:20.964Z,6.41
2022-11-26T17:30:48.656Z,6.46
2022-11-26T17:33:17.736Z,6.48
2022-11-26T17:35:45.639Z,6.41
2022-11-26T17:38:16.137Z,6.39
2022-11-26T17:40:44.784Z,6.47
2022-11-26T17:43:12.767Z,6.52
2022-11-26T17:45:42.876Z,6.46
2022-11-26T17:48:13.846Z,6.48
2022-11-26T17:50:43.242Z,6.45
2022-11-26T17:53:10.913Z,6.42
2022-11-26T17:55:39.466Z,6.42
2022-11-26T17:58:07.268Z,6.39
2022-11-26T18:00:34.942Z,6.39
2022-11-26T18:03:02.688Z,6.35
2022-11-26T18:05:30.630Z,6.37
2022-11-26T18:07:59.613Z,6.31
2022-11-26T18:10:27.417Z,6.32
2022-11-26T18:12:55.255Z,6.30
2022-11-26T18:15:24.927Z,6.31
2022-11-26T18:17:54.651Z,6.30
2022-11-26T18:20:24.954Z,6.29
2022-11-26T18:22:53.510Z,6.31
2022-11-26T18:25:22.613Z,6.35
2022-11-26T18:27:50.288Z,6.33
2022-11-26T18:30:18.730Z,6.31
2022-11-26T18:32:46.474Z,6.25
2022-11-26T18:35:14.495Z,6.16
2022-11-26T18:37:42.601Z,6.19
2022-11-26T18:40:14.421Z,6.15
2022-11-26T18:42:43.554Z,6.15
2022-11-26T18:45:14.682Z,6.12
2022-11-26T18:47:42.335Z,6.09
2022-11-26T18:50:10.579Z,6.09
2022-11-26T18:52:38.785Z,6.04
2022-11-26T18:55:08.011Z,6.00
2022-11-26T18:57:35.642Z,6.01
2022-11-26T19:00:06.833Z,5.91
2022-11-26T19:02:34.851Z,5.88
2022-11-26T19:05:03.538Z,5.82
2022-11-26T19:07:33.015Z,5.78
2022-11-26T19:10:00.806Z,5.76
2022-11-26T19:12:28.390Z,5.69
2022-11-26T19:14:56.021Z,5.67
2022-11-26T19:17:24.954Z,5.63
2022-11-26T19:19:52.550Z,5.58
2022-11-26T19:22:20.178Z,5.56
2022-11-26T19:24:49.353Z,5.52
2022-11-26T19:27:16.978Z,5.50
2022-11-26T19:29:44.582Z,5.45
2022-11-26T19:32:12.305Z,5.38
2022-11-26T19:34:41.336Z,5.34
2022-11-26T19:37:08.941Z,5.30
2022-11-26T19:39:37.358Z,5.26
2022-11-26T19:42:05.413Z,5.24
2022-11-26T19:44:35.208Z,5.16
2022-11-26T19:47:03.200Z,5.07
2022-11-26T19:49:30.883Z,5.04
2022-11-26T19:51:59.925Z,4.98
2022-11-26T19:54:27.938Z,4.89
2022-11-26T19:56:55.583Z,4.87
2022-11-26T19:59:23.217Z,4.87
2022-11-26T20:01:50.964Z,4.85
2022-11-26T20:04:19.492Z,4.83
2022-11-26T20:06:47.400Z,4.84
2022-11-26T20:09:16.372Z,4.84
2022-11-26T20:11:44.506Z,4.81
2022-11-26T20:14:14.416Z,4.75
2022-11-26T20:16:44.128Z,4.75
2022-11-26T20:19:13.170Z,4.71
2022-11-26T20:21:40.990Z,4.69
2022-11-26T20:24:12.415Z,4.68
2022-11-26T20:26:43.259Z,4.69
2022-11-26T20:29:13.572Z,4.66
2022-11-26T20:31:44.497Z,4.75
2022-11-26T20:34:14.125Z,4.77
2022-11-26T20:36:41.725Z,4.75
2022-11-26T20:39:13.496Z,4.63
2022-11-26T20:41:42.816Z,4.55
2022-11-26T20:44:10.999Z,4.49
2022-11-26T20:46:38.951Z,4.40
2022-11-26T20:49:07.349Z,4.37
2022-11-26T20:51:35.212Z,4.31
2022-11-26T20:54:03.267Z,4.29
2022-11-26T20:56:31.130Z,4.24
2022-11-26T20:59:00.060Z,4.25
2022-11-26T21:01:29.323Z,4.37
2022-11-26T21:03:57.385Z,4.34
2022-11-26T21:06:30.183Z,4.25
2022-11-26T21:09:00.332Z,4.16
2022-11-26T21:11:28.161Z,4.07
2022-11-26T21:13:55.722Z,4.00
2022-11-26T21:16:24.660Z,3.96
2022-11-26T21:18:54.003Z,3.95
2022-11-26T21:21:21.795Z,3.89
2022-11-26T21:23:49.386Z,3.85
2022-11-26T21:26:18.818Z,3.83
2022-11-26T21:28:51.131Z,3.83
2022-11-26T21:31:19.399Z,3.78
2022-11-26T21:33:54.055Z,3.76
2022-11-26T21:36:21.712Z,3.69
2022-11-26T21:38:50.120Z,3.67
2022-11-26T21:41:19.789Z,3.62
2022-11-26T21:43:49.437Z,3.55
2022-11-26T21:46:19.650Z,3.53
2022-11-26T21:48:48.719Z,3.50
2022-11-26T21:51:17.854Z,3.48
2022-11-26T21:53:45.825Z,3.45
2022-11-26T21:56:17.116Z,3.39
2022-11-26T21:58:45.066Z,3.36
2022-11-26T22:01:13.975Z,3.35
2022-11-26T22:03:43.133Z,3.30
2022-11-26T22:06:12.764Z,3.27
2022-11-26T22:08:40.738Z,3.23
2022-11-26T22:11:10.018Z,3.19
2022-11-26T22:13:37.836Z,3.18
2022-11-26T22:16:06.480Z,3.15
2022-11-26T22:18:36.463Z,3.13
2022-11-26T22:21:04.385Z,3.09
2022-11-26T22:23:33.410Z,3.05
2022-11-26T22:26:01.062Z,3.02
2022-11-26T22:28:30.332Z,2.99
2022-11-26T22:30:58.200Z,3.02
2022-11-26T22:33:25.896Z,3.00
2022-11-26T22:35:53.470Z,2.97
2022-11-26T22:38:21.054Z,2.94
2022-11-26T22:40:50.066Z,2.91
2022-11-26T22:43:17.749Z,2.91
2022-11-26T22:45:45.429Z,2.92
2022-11-26T22:48:13.165Z,2.92
2022-11-26T22:50:40.728Z,2.85
2022-11-26T22:53:08.384Z,2.83
2022-11-26T22:55:36.080Z,2.79
2022-11-26T22:58:05.033Z,2.78
2022-11-26T23:00:47.494Z,2.69
2022-11-26T23:03:16.284Z,2.64
2022-11-26T23:05:44.351Z,2.58
2022-11-26T23:08:12.623Z,2.56
2022-11-26T23:10:40.829Z,2.55
2022-11-26T23:13:10.591Z,2.53
2022-11-26T23:15:44.527Z,2.49
2022-11-26T23:18:13.649Z,2.48
2022-11-26T23:20:42.317Z,2.47
2022-11-26T23:23:10.653Z,2.46
2022-11-26T23:25:39.800Z,2.41
2022-11-26T23:28:08.000Z,2.40
2022-11-26T23:30:37.122Z,2.36
2022-11-26T23:33:04.806Z,2.38
2022-11-26T23:35:32.456Z,2.32
2022-11-26T23:38:00.067Z,2.32
2022-11-26T23:40:27.705Z,2.30
2022-11-26T23:42:55.515Z,2.31
2022-11-26T23:45:23.071Z,2.29
2022-11-26T23:47:52.097Z,2.26
2022-11-26T23:50:19.836Z,2.24
2022-11-26T23:52:47.436Z,2.25
2022-11-26T23:55:16.418Z,2.22
2022-11-26T23:57:44.081Z,2.22
